Time;durP1;ratioP1;P1;durP2;ratioP2;P2;SDS_P1;SDS_P2;PMS_P1;PMS_P2;Temp;Humidity;BMP_temperature;BMP_pressure;BME280_temperature;BME280_humidity;BME280_pressure;Samples;Min_cycle;Max_cycle;Signal;HPM_P1;HPM_P2
2023/12/02 00:02:16;;;;;;;15.95;11.73;;;;;;;;;;4977021;28;20252;-83
2023/12/02 00:04:42;;;;;;;15.63;11.82;;;;;;;;;;4981863;28;20848;-83
2023/12/02 00:07:10;;;;;;;16.45;12.35;;;;;;;;;;4981718;28;20263;-82
2023/12/02 00:09:37;;;;;;;15.70;11.60;;;;;;;;;;4980588;28;20712;-83
2023/12/02 00:12:04;;;;;;;16.75;12.07;;;;;;;;;;4979134;28;20491;-82
2023/12/02 00:14:31;;;;;;;16.73;12.07;;;;;;;;;;4981290;28;20260;-90
2023/12/02 00:16:57;;;;;;;14.63;12.20;;;;;;;;;;4980323;28;20248;-88
2023/12/02 00:19:23;;;;;;;14.40;12.85;;;;;;;;;;4982197;28;20686;-85
2023/12/02 00:21:51;;;;;;;15.13;12.80;;;;;;;;;;4984468;28;20213;-88
2023/12/02 00:24:17;;;;;;;11.13;10.05;;;;;;;;;;4982556;28;20221;-88
2023/12/02 00:26:45;;;;;;;13.88;11.80;;;;;;;;;;4981998;28;20304;-88
2023/12/02 00:29:11;;;;;;;14.77;11.32;;;;;;;;;;4983625;28;20237;-87
2023/12/02 00:31:38;;;;;;;11.75;10.55;;;;;;;;;;4982153;28;20256;-87
2023/12/02 00:34:04;;;;;;;14.30;11.20;;;;;;;;;;4980764;28;20268;-87
2023/12/02 00:36:32;;;;;;;13.60;10.05;;;;;;;;;;4979847;28;20781;-87
2023/12/02 00:38:58;;;;;;;13.43;11.30;;;;;;;;;;4979954;28;20324;-87
2023/12/02 00:41:25;;;;;;;14.00;11.45;;;;;;;;;;4981433;28;20332;-87
2023/12/02 00:43:52;;;;;;;16.85;10.63;;;;;;;;;;4981532;28;20285;-86
2023/12/02 00:46:19;;;;;;;15.93;12.38;;;;;;;;;;4981426;28;20220;-88
2023/12/02 00:48:45;;;;;;;14.90;9.68;;;;;;;;;;4988163;28;20213;-87
2023/12/02 00:51:11;;;;;;;13.63;11.13;;;;;;;;;;4981634;28;20316;-87
2023/12/02 00:53:38;;;;;;;14.07;10.98;;;;;;;;;;4980580;28;20951;-86
2023/12/02 00:56:05;;;;;;;11.60;9.73;;;;;;;;;;4982057;28;20276;-87
2023/12/02 00:58:31;;;;;;;10.32;9.30;;;;;;;;;;4978389;28;20210;-87
2023/12/02 01:00:59;;;;;;;13.85;10.07;;;;;;;;;;4980682;28;20217;-87
2023/12/02 01:03:26;;;;;;;12.60;10.60;;;;;;;;;;4980878;28;20619;-86
2023/12/02 01:05:52;;;;;;;16.08;11.13;;;;;;;;;;4982189;28;20289;-88
2023/12/02 01:08:19;;;;;;;16.35;11.10;;;;;;;;;;4980604;28;20208;-87
2023/12/02 01:10:45;;;;;;;19.77;12.05;;;;;;;;;;4981470;28;20252;-87
2023/12/02 01:13:11;;;;;;;14.93;13.13;;;;;;;;;;4980343;28;20205;-88
2023/12/02 01:15:38;;;;;;;19.00;13.05;;;;;;;;;;4980024;28;20765;-88
2023/12/02 01:18:06;;;;;;;16.85;13.00;;;;;;;;;;4982745;28;20248;-87
2023/12/02 01:20:32;;;;;;;15.43;12.75;;;;;;;;;;4979433;28;20260;-88
2023/12/02 01:22:58;;;;;;;14.50;11.80;;;;;;;;;;4981473;28;20279;-88
2023/12/02 01:25:25;;;;;;;16.30;12.32;;;;;;;;;;4978157;28;20571;-88
2023/12/02 01:27:51;;;;;;;19.33;13.10;;;;;;;;;;4981249;28;20272;-88
2023/12/02 01:30:18;;;;;;;18.52;13.70;;;;;;;;;;4980021;28;20217;-88
2023/12/02 01:32:44;;;;;;;13.82;11.18;;;;;;;;;;4981045;28;20303;-87
2023/12/02 01:35:12;;;;;;;17.38;13.57;;;;;;;;;;4982010;28;20281;-87
2023/12/02 01:37:38;;;;;;;15.90;12.90;;;;;;;;;;4980832;28;21161;-89
2023/12/02 01:40:05;;;;;;;16.85;13.50;;;;;;;;;;4978891;28;20247;-88
2023/12/02 01:42:31;;;;;;;15.43;12.02;;;;;;;;;;4978643;28;20976;-87
2023/12/02 01:44:58;;;;;;;19.27;13.60;;;;;;;;;;4980137;28;20280;-87
2023/12/02 01:47:24;;;;;;;22.00;13.45;;;;;;;;;;4979708;28;20560;-88
2023/12/02 01:49:51;;;;;;;21.40;15.80;;;;;;;;;;4978113;28;20288;-89
2023/12/02 01:52:19;;;;;;;19.95;13.65;;;;;;;;;;4980673;28;20247;-85
2023/12/02 01:54:46;;;;;;;15.75;12.93;;;;;;;;;;4981184;28;20276;-88
2023/12/02 01:57:12;;;;;;;18.80;13.77;;;;;;;;;;4980252;28;20245;-86
2023/12/02 01:59:44;;;;;;;21.35;15.35;;;;;;;;;;4981020;28;20484;-87
2023/12/02 02:02:11;;;;;;;20.33;14.43;;;;;;;;;;4978565;28;20241;-87
2023/12/02 02:04:37;;;;;;;18.63;14.95;;;;;;;;;;4979756;28;20256;-88
2023/12/02 02:07:04;;;;;;;18.35;13.60;;;;;;;;;;4978894;28;20248;-88
2023/12/02 02:09:34;;;;;;;18.70;13.38;;;;;;;;;;4979449;28;20209;-88
2023/12/02 02:12:01;;;;;;;17.23;13.43;;;;;;;;;;4980096;28;20241;-87
2023/12/02 02:14:27;;;;;;;16.38;14.50;;;;;;;;;;4980930;28;20205;-88
2023/12/02 02:16:54;;;;;;;18.30;13.13;;;;;;;;;;4980080;28;20859;-84
2023/12/02 02:19:20;;;;;;;19.77;14.55;;;;;;;;;;4979948;28;20245;-87
2023/12/02 02:21:52;;;;;;;21.20;16.02;;;;;;;;;;4971280;28;20280;-88
2023/12/02 02:24:19;;;;;;;15.10;12.38;;;;;;;;;;4980277;28;20284;-87
2023/12/02 02:26:45;;;;;;;18.67;12.75;;;;;;;;;;4980044;28;20247;-87
2023/12/02 02:29:12;;;;;;;15.68;13.55;;;;;;;;;;4980900;28;20232;-87
2023/12/02 02:31:38;;;;;;;19.55;12.20;;;;;;;;;;4979193;28;20217;-87
2023/12/02 02:34:04;;;;;;;19.80;13.32;;;;;;;;;;4980093;28;20279;-87
2023/12/02 02:36:31;;;;;;;22.27;14.00;;;;;;;;;;4980545;28;20312;-87
2023/12/02 02:38:59;;;;;;;19.63;13.38;;;;;;;;;;4979088;28;20240;-87
2023/12/02 02:41:25;;;;;;;13.55;11.25;;;;;;;;;;4981913;28;20237;-87
2023/12/02 02:43:51;;;;;;;20.40;13.18;;;;;;;;;;4984533;28;20245;-88
2023/12/02 02:46:18;;;;;;;19.20;13.25;;;;;;;;;;4978307;28;20237;-87
2023/12/02 02:48:44;;;;;;;18.20;12.23;;;;;;;;;;4983910;28;20300;-87
2023/12/02 02:51:11;;;;;;;17.08;12.30;;;;;;;;;;4984270;28;20228;-87
2023/12/02 02:53:38;;;;;;;14.15;11.55;;;;;;;;;;4983939;28;20236;-87
2023/12/02 02:56:06;;;;;;;16.00;13.48;;;;;;;;;;4982955;28;20221;-87
2023/12/02 02:58:34;;;;;;;17.42;11.65;;;;;;;;;;4984090;28;20205;-87
2023/12/02 03:01:00;;;;;;;15.65;10.55;;;;;;;;;;4981667;28;20220;-87
2023/12/02 03:03:26;;;;;;;14.73;11.25;;;;;;;;;;4983682;28;20800;-87
2023/12/02 03:05:54;;;;;;;16.70;11.70;;;;;;;;;;4983596;28;20263;-86
2023/12/02 03:08:20;;;;;;;17.08;12.68;;;;;;;;;;4982717;28;20864;-88
2023/12/02 03:10:48;;;;;;;16.27;12.63;;;;;;;;;;4979759;28;20751;-86
2023/12/02 03:13:17;;;;;;;18.75;13.88;;;;;;;;;;4983127;28;20216;-87
2023/12/02 03:15:43;;;;;;;14.20;11.98;;;;;;;;;;4982395;28;20277;-86
2023/12/02 03:18:09;;;;;;;13.50;10.93;;;;;;;;;;4983571;28;20292;-88
2023/12/02 03:20:36;;;;;;;13.07;11.50;;;;;;;;;;4979492;28;20331;-86
2023/12/02 03:23:02;;;;;;;16.95;9.65;;;;;;;;;;4982665;28;20547;-87
2023/12/02 03:25:29;;;;;;;16.27;11.00;;;;;;;;;;4983381;28;20217;-87
2023/12/02 03:27:55;;;;;;;13.85;10.70;;;;;;;;;;4989730;28;20236;-85
2023/12/02 03:30:23;;;;;;;15.63;11.70;;;;;;;;;;4982706;28;20236;-86
2023/12/02 03:32:49;;;;;;;11.57;10.35;;;;;;;;;;4983735;28;20248;-87
2023/12/02 03:35:16;;;;;;;14.05;9.55;;;;;;;;;;4981633;28;20284;-86
2023/12/02 03:37:42;;;;;;;16.40;10.85;;;;;;;;;;4983205;28;20247;-86
2023/12/02 03:40:10;;;;;;;14.93;10.93;;;;;;;;;;4980717;28;20308;-86
2023/12/02 03:42:36;;;;;;;13.95;10.88;;;;;;;;;;4983196;28;20217;-86
2023/12/02 03:45:03;;;;;;;11.85;10.48;;;;;;;;;;4981363;28;20240;-86
2023/12/02 03:47:36;;;;;;;10.38;9.25;;;;;;;;;;4986774;28;20232;-87
2023/12/02 03:50:03;;;;;;;14.05;10.63;;;;;;;;;;4980146;28;20212;-87
2023/12/02 03:52:30;;;;;;;10.75;9.63;;;;;;;;;;4982585;28;20280;-87
2023/12/02 03:54:56;;;;;;;12.27;9.77;;;;;;;;;;4982524;28;20217;-88
2023/12/02 03:57:22;;;;;;;11.57;10.10;;;;;;;;;;4982172;28;20224;-88
2023/12/02 03:59:48;;;;;;;11.60;10.17;;;;;;;;;;4982947;28;20650;-87
2023/12/02 04:02:14;;;;;;;12.50;10.10;;;;;;;;;;4982238;28;20227;-88
2023/12/02 04:04:42;;;;;;;13.98;11.55;;;;;;;;;;4981055;28;20304;-87
2023/12/02 04:07:09;;;;;;;12.35;10.88;;;;;;;;;;4977974;28;20244;-87
2023/12/02 04:09:35;;;;;;;13.10;10.90;;;;;;;;;;4978643;28;20253;-87
2023/12/02 04:12:01;;;;;;;12.40;9.98;;;;;;;;;;4981292;28;20488;-87
2023/12/02 04:14:27;;;;;;;12.70;10.80;;;;;;;;;;4981246;28;20216;-88
2023/12/02 04:16:53;;;;;;;12.43;9.93;;;;;;;;;;4978988;28;20241;-87
2023/12/02 04:19:21;;;;;;;13.20;10.30;;;;;;;;;;4981596;28;20249;-87
2023/12/02 04:21:48;;;;;;;15.18;11.15;;;;;;;;;;4976816;28;20218;-87
2023/12/02 04:24:15;;;;;;;19.80;13.87;;;;;;;;;;4981465;28;20217;-87
2023/12/02 04:26:42;;;;;;;15.32;11.48;;;;;;;;;;4978037;28;20484;-88
2023/12/02 04:29:08;;;;;;;14.20;10.27;;;;;;;;;;4982674;28;20292;-87
2023/12/02 04:31:35;;;;;;;16.37;12.77;;;;;;;;;;4981903;28;20484;-87
2023/12/02 04:34:01;;;;;;;15.05;11.98;;;;;;;;;;4980401;28;20461;-87
2023/12/02 04:36:28;;;;;;;19.07;11.40;;;;;;;;;;4970149;28;20214;-87
2023/12/02 04:38:56;;;;;;;14.88;10.55;;;;;;;;;;4978873;28;20455;-88
2023/12/02 04:41:22;;;;;;;12.40;10.13;;;;;;;;;;4977669;28;20268;-87
2023/12/02 04:43:48;;;;;;;15.88;12.02;;;;;;;;;;4981803;28;20945;-86
2023/12/02 04:46:15;;;;;;;16.53;11.63;;;;;;;;;;4980537;28;20288;-87
2023/12/02 04:48:42;;;;;;;14.40;11.70;;;;;;;;;;4982070;28;20500;-88
2023/12/02 04:51:09;;;;;;;18.63;13.20;;;;;;;;;;4981381;28;20475;-88
2023/12/02 04:53:35;;;;;;;19.00;12.63;;;;;;;;;;4981273;28;20241;-87
2023/12/02 04:56:03;;;;;;;19.05;12.63;;;;;;;;;;4978019;28;20506;-87
2023/12/02 04:58:30;;;;;;;19.67;12.68;;;;;;;;;;4981458;28;20237;-87
2023/12/02 05:00:57;;;;;;;21.35;12.85;;;;;;;;;;4977357;28;20221;-87
2023/12/02 05:03:23;;;;;;;19.27;12.65;;;;;;;;;;4980566;28;20264;-88
2023/12/02 05:05:49;;;;;;;18.73;13.20;;;;;;;;;;4981338;28;20262;-87
2023/12/02 05:08:16;;;;;;;18.50;11.73;;;;;;;;;;4976263;28;20481;-87
2023/12/02 05:10:42;;;;;;;19.42;13.23;;;;;;;;;;4980809;28;20304;-87
2023/12/02 05:13:10;;;;;;;24.30;13.50;;;;;;;;;;4981734;28;20255;-88
2023/12/02 05:15:36;;;;;;;26.50;13.07;;;;;;;;;;4986969;28;20307;-87
2023/12/02 05:18:03;;;;;;;19.67;12.48;;;;;;;;;;4981635;28;20267;-88
2023/12/02 05:20:30;;;;;;;21.48;13.15;;;;;;;;;;4980705;28;20212;-82
2023/12/02 05:22:56;;;;;;;15.50;11.23;;;;;;;;;;4981356;28;20715;-83
2023/12/02 05:25:22;;;;;;;17.45;13.82;;;;;;;;;;4979560;28;20232;-82
2023/12/02 05:27:49;;;;;;;17.98;12.50;;;;;;;;;;4979356;28;20305;-82
2023/12/02 05:30:17;;;;;;;20.58;10.73;;;;;;;;;;4981090;28;20317;-82
2023/12/02 05:32:43;;;;;;;19.58;12.45;;;;;;;;;;4971816;28;20229;-82
2023/12/02 05:35:11;;;;;;;17.77;11.73;;;;;;;;;;4975073;28;20876;-83
2023/12/02 05:37:38;;;;;;;21.17;13.20;;;;;;;;;;4979424;28;20237;-82
2023/12/02 05:40:05;;;;;;;18.97;12.97;;;;;;;;;;4979255;28;20656;-82
2023/12/02 05:42:32;;;;;;;17.02;11.90;;;;;;;;;;4976583;28;20527;-83
2023/12/02 05:44:58;;;;;;;19.52;11.95;;;;;;;;;;4975974;28;20243;-82
2023/12/02 05:47:26;;;;;;;24.10;14.98;;;;;;;;;;4976394;28;20222;-82
2023/12/02 05:49:52;;;;;;;19.93;12.47;;;;;;;;;;4979047;28;20247;-82
2023/12/02 05:52:19;;;;;;;19.50;13.57;;;;;;;;;;4977413;28;20504;-82
2023/12/02 05:54:45;;;;;;;24.00;15.10;;;;;;;;;;4980693;28;20505;-82
2023/12/02 05:57:12;;;;;;;21.13;13.75;;;;;;;;;;4979680;28;20718;-82
2023/12/02 05:59:39;;;;;;;17.15;12.60;;;;;;;;;;4977529;28;20307;-83
2023/12/02 06:02:05;;;;;;;20.08;12.55;;;;;;;;;;4979132;28;20225;-83
2023/12/02 06:04:33;;;;;;;19.30;11.77;;;;;;;;;;4979117;28;20257;-83
2023/12/02 06:07:00;;;;;;;20.23;12.70;;;;;;;;;;4977115;28;20224;-83
2023/12/02 06:09:26;;;;;;;19.35;12.25;;;;;;;;;;4982465;28;20219;-84
2023/12/02 06:11:52;;;;;;;21.33;12.75;;;;;;;;;;4979049;28;20280;-83
2023/12/02 06:14:19;;;;;;;19.00;13.35;;;;;;;;;;4978574;28;20211;-84
2023/12/02 06:16:46;;;;;;;16.88;12.13;;;;;;;;;;4974742;28;20225;-84
2023/12/02 06:19:12;;;;;;;21.98;13.18;;;;;;;;;;4980579;28;20284;-83
2023/12/02 06:21:40;;;;;;;21.52;12.73;;;;;;;;;;4980479;28;20225;-83
2023/12/02 06:24:07;;;;;;;19.10;12.10;;;;;;;;;;4979360;28;20347;-84
2023/12/02 06:26:33;;;;;;;21.10;12.43;;;;;;;;;;4976829;28;20260;-83
2023/12/02 06:28:59;;;;;;;21.55;12.27;;;;;;;;;;4980324;28;20248;-83
2023/12/02 06:31:26;;;;;;;21.90;12.47;;;;;;;;;;4978671;28;20247;-83
2023/12/02 06:33:53;;;;;;;19.33;11.60;;;;;;;;;;4979362;28;20445;-83
2023/12/02 06:36:19;;;;;;;19.58;13.00;;;;;;;;;;4979008;28;20248;-83
2023/12/02 06:38:47;;;;;;;23.20;14.00;;;;;;;;;;4976749;28;20738;-84
2023/12/02 06:41:13;;;;;;;24.10;13.60;;;;;;;;;;4978462;28;20522;-84
2023/12/02 06:43:40;;;;;;;20.10;12.30;;;;;;;;;;4980429;28;20488;-84
2023/12/02 06:46:07;;;;;;;21.10;13.07;;;;;;;;;;4980549;28;20495;-83
2023/12/02 06:48:33;;;;;;;22.48;13.52;;;;;;;;;;4980496;28;20488;-84
2023/12/02 06:51:00;;;;;;;19.55;11.60;;;;;;;;;;4979842;28;20737;-83
2023/12/02 06:53:26;;;;;;;18.03;12.10;;;;;;;;;;4980488;28;20268;-84
2023/12/02 06:55:54;;;;;;;18.52;12.90;;;;;;;;;;4980682;28;20512;-84
2023/12/02 06:58:20;;;;;;;21.30;11.77;;;;;;;;;;4980722;28;20297;-83
2023/12/02 07:00:47;;;;;;;22.55;12.45;;;;;;;;;;4980050;28;20487;-83
2023/12/02 07:03:13;;;;;;;18.70;12.00;;;;;;;;;;4980514;28;20219;-83
2023/12/02 07:05:39;;;;;;;19.63;12.07;;;;;;;;;;4979399;28;20304;-84
2023/12/02 07:08:06;;;;;;;17.40;11.55;;;;;;;;;;4980352;28;20451;-84
2023/12/02 07:10:32;;;;;;;16.95;10.82;;;;;;;;;;4979016;28;20324;-83
2023/12/02 07:13:00;;;;;;;20.17;11.98;;;;;;;;;;4980281;28;20783;-83
2023/12/02 07:15:26;;;;;;;19.35;11.95;;;;;;;;;;4979181;28;20320;-84
2023/12/02 07:17:53;;;;;;;18.47;12.70;;;;;;;;;;4977063;28;20213;-84
2023/12/02 07:20:19;;;;;;;20.23;12.57;;;;;;;;;;4979252;28;20619;-84
2023/12/02 07:22:46;;;;;;;21.47;12.77;;;;;;;;;;4980063;28;20264;-84
2023/12/02 07:25:12;;;;;;;19.08;12.40;;;;;;;;;;4980223;28;20515;-86
2023/12/02 07:27:39;;;;;;;21.97;12.97;;;;;;;;;;4982614;28;20260;-87
2023/12/02 07:30:08;;;;;;;22.70;13.23;;;;;;;;;;4983601;28;20925;-86
2023/12/02 07:32:34;;;;;;;19.10;13.48;;;;;;;;;;4981742;28;21006;-88
2023/12/02 07:35:01;;;;;;;21.90;13.38;;;;;;;;;;4983110;28;20236;-87
2023/12/02 07:37:27;;;;;;;18.98;11.43;;;;;;;;;;4982979;28;20237;-87
2023/12/02 07:39:53;;;;;;;21.77;13.93;;;;;;;;;;4991300;28;20213;-87
2023/12/02 07:42:20;;;;;;;21.05;14.00;;;;;;;;;;4982771;28;20221;-87
2023/12/02 07:44:46;;;;;;;28.73;14.13;;;;;;;;;;4983049;28;20297;-88
2023/12/02 07:47:14;;;;;;;21.60;13.63;;;;;;;;;;4985797;28;20221;-86
2023/12/02 07:49:40;;;;;;;21.63;12.90;;;;;;;;;;4982144;28;20252;-88
2023/12/02 07:52:07;;;;;;;17.48;11.98;;;;;;;;;;4983320;28;20255;-85
2023/12/02 07:54:33;;;;;;;21.30;13.30;;;;;;;;;;4983350;28;20232;-87
2023/12/02 07:56:59;;;;;;;18.03;11.57;;;;;;;;;;4983058;28;20533;-87
2023/12/02 07:59:26;;;;;;;22.92;13.25;;;;;;;;;;4985837;28;20530;-86
2023/12/02 08:01:52;;;;;;;19.37;13.03;;;;;;;;;;4982867;28;20663;-86
2023/12/02 08:04:20;;;;;;;25.20;14.17;;;;;;;;;;4980846;28;20551;-86
2023/12/02 08:06:47;;;;;;;19.10;13.60;;;;;;;;;;4979759;28;20488;-87
2023/12/02 08:09:14;;;;;;;21.80;13.35;;;;;;;;;;4973367;28;20540;-87
2023/12/02 08:11:41;;;;;;;23.10;13.32;;;;;;;;;;4975792;28;20229;-86
2023/12/02 08:14:07;;;;;;;21.33;15.07;;;;;;;;;;4975237;28;20239;-86
2023/12/02 08:16:34;;;;;;;21.20;16.20;;;;;;;;;;4978710;28;20492;-86
2023/12/02 08:19:00;;;;;;;23.40;16.77;;;;;;;;;;4974454;28;20536;-86
2023/12/02 08:21:28;;;;;;;25.73;17.33;;;;;;;;;;4972909;28;20213;-86
2023/12/02 08:23:54;;;;;;;21.97;16.60;;;;;;;;;;4982695;28;20495;-86
2023/12/02 08:26:21;;;;;;;25.37;18.23;;;;;;;;;;4975671;28;20547;-85
2023/12/02 08:28:48;;;;;;;22.30;15.70;;;;;;;;;;4982160;28;20491;-85
2023/12/02 08:31:15;;;;;;;23.13;14.50;;;;;;;;;;4982041;28;20563;-83
2023/12/02 08:33:41;;;;;;;26.37;15.93;;;;;;;;;;4981924;28;20511;-85
2023/12/02 08:36:08;;;;;;;19.27;14.77;;;;;;;;;;4982548;28;20581;-83
2023/12/02 08:38:36;;;;;;;27.87;16.00;;;;;;;;;;4981731;28;20445;-84
2023/12/02 08:41:02;;;;;;;21.57;13.77;;;;;;;;;;4981174;28;20520;-86
2023/12/02 08:43:29;;;;;;;22.43;13.00;;;;;;;;;;4982571;28;20507;-86
2023/12/02 08:45:55;;;;;;;24.57;14.87;;;;;;;;;;4980502;28;20515;-85
2023/12/02 08:48:21;;;;;;;20.13;14.20;;;;;;;;;;4978968;28;20484;-85
2023/12/02 08:50:48;;;;;;;21.57;13.87;;;;;;;;;;4978649;28;20507;-85
2023/12/02 08:53:14;;;;;;;24.60;14.17;;;;;;;;;;4981652;28;20480;-84
2023/12/02 08:55:43;;;;;;;23.40;13.60;;;;;;;;;;4979094;28;20472;-80
2023/12/02 08:58:09;;;;;;;23.90;14.73;;;;;;;;;;4981405;28;20539;-81
2023/12/02 09:00:35;;;;;;;22.63;14.07;;;;;;;;;;4978128;28;20495;-84
2023/12/02 09:03:02;;;;;;;23.90;14.50;;;;;;;;;;4980577;28;20947;-82
2023/12/02 09:05:29;;;;;;;19.23;14.27;;;;;;;;;;4979103;28;20500;-84
2023/12/02 09:07:56;;;;;;;23.10;14.00;;;;;;;;;;4977466;28;20457;-84
2023/12/02 09:10:23;;;;;;;21.77;15.40;;;;;;;;;;4977057;28;20485;-84
2023/12/02 09:12:50;;;;;;;20.23;14.10;;;;;;;;;;4976089;28;20548;-84
2023/12/02 09:15:44;;;;;;;26.10;15.20;;;;;;;;;;4972874;28;20473;-84
2023/12/02 09:18:11;;;;;;;21.17;14.43;;;;;;;;;;4933210;28;20552;-85
2023/12/02 09:20:45;;;;;;;19.07;14.10;;;;;;;;;;4980469;28;20460;-85
2023/12/02 09:23:12;;;;;;;22.40;14.40;;;;;;;;;;4970566;28;20500;-87
2023/12/02 09:25:39;;;;;;;24.67;15.40;;;;;;;;;;4973891;28;20539;-82
2023/12/02 09:28:16;;;;;;;21.40;14.23;;;;;;;;;;4975421;28;20484;-83
2023/12/02 09:30:49;;;;;;;22.37;13.33;;;;;;;;;;4975988;28;20485;-87
2023/12/02 09:33:16;;;;;;;21.87;14.77;;;;;;;;;;4974734;28;21137;-83
2023/12/02 09:35:43;;;;;;;21.60;13.93;;;;;;;;;;4978556;28;20527;-83
2023/12/02 09:38:09;;;;;;;22.20;14.87;;;;;;;;;;4982327;28;20507;-83
2023/12/02 09:40:51;;;;;;;22.80;15.87;;;;;;;;;;4982512;28;20484;-83
2023/12/02 09:43:26;;;;;;;23.83;14.20;;;;;;;;;;4981618;28;20500;-82
2023/12/02 09:46:04;;;;;;;21.77;14.67;;;;;;;;;;4982429;28;20523;-83
2023/12/02 09:48:31;;;;;;;21.23;13.77;;;;;;;;;;4980878;28;20480;-83
2023/12/02 09:51:01;;;;;;;18.87;13.63;;;;;;;;;;4981490;28;20495;-82
2023/12/02 09:53:30;;;;;;;20.97;14.60;;;;;;;;;;4981743;28;20556;-83
2023/12/02 09:55:59;;;;;;;20.10;13.80;;;;;;;;;;4980114;28;20456;-83
2023/12/02 09:58:32;;;;;;;20.50;15.10;;;;;;;;;;4980479;28;20460;-83
2023/12/02 10:01:00;;;;;;;23.73;14.87;;;;;;;;;;4977202;28;20921;-82
2023/12/02 10:03:29;;;;;;;21.70;14.00;;;;;;;;;;4980375;28;20544;-82
2023/12/02 10:06:00;;;;;;;23.10;13.97;;;;;;;;;;4979271;28;21111;-83
2023/12/02 10:08:32;;;;;;;17.30;13.20;;;;;;;;;;4977215;28;20445;-82
2023/12/02 10:11:03;;;;;;;21.60;13.43;;;;;;;;;;4977817;28;20496;-83
2023/12/02 10:13:36;;;;;;;20.57;13.70;;;;;;;;;;4978050;28;20456;-83
2023/12/02 10:16:04;;;;;;;19.30;12.80;;;;;;;;;;4979184;28;20508;-83
2023/12/02 10:18:38;;;;;;;23.93;14.83;;;;;;;;;;4980493;28;20532;-81
2023/12/02 10:21:08;;;;;;;21.57;13.13;;;;;;;;;;4977640;28;20492;-83
2023/12/02 10:23:37;;;;;;;22.13;14.10;;;;;;;;;;4970890;28;20488;-84
2023/12/02 10:26:06;;;;;;;18.87;13.20;;;;;;;;;;4975546;28;20476;-83
2023/12/02 10:28:38;;;;;;;21.70;14.60;;;;;;;;;;4975207;28;20492;-85
2023/12/02 10:31:06;;;;;;;25.80;15.77;;;;;;;;;;4975155;28;20452;-86
2023/12/02 10:33:35;;;;;;;19.73;14.23;;;;;;;;;;4979238;28;20460;-83
2023/12/02 10:36:04;;;;;;;25.00;14.87;;;;;;;;;;4979025;28;20499;-87
2023/12/02 10:38:35;;;;;;;24.30;13.97;;;;;;;;;;4983187;28;20452;-85
2023/12/02 10:41:06;;;;;;;22.83;15.23;;;;;;;;;;4980896;28;20498;-84
2023/12/02 10:43:38;;;;;;;25.20;14.60;;;;;;;;;;4982257;28;20488;-84
2023/12/02 10:46:06;;;;;;;23.73;14.00;;;;;;;;;;4982587;28;20567;-84
2023/12/02 10:48:33;;;;;;;23.43;14.93;;;;;;;;;;4975955;28;20471;-85
2023/12/02 10:50:59;;;;;;;24.27;15.47;;;;;;;;;;4981426;28;20460;-85
2023/12/02 10:53:27;;;;;;;25.60;16.13;;;;;;;;;;4982716;28;20495;-86
2023/12/02 10:55:57;;;;;;;23.07;15.30;;;;;;;;;;4983357;28;20504;-86
2023/12/02 10:58:25;;;;;;;23.03;14.97;;;;;;;;;;4978745;28;21147;-86
2023/12/02 11:00:59;;;;;;;22.83;14.70;;;;;;;;;;4983374;28;20459;-85
2023/12/02 11:03:28;;;;;;;25.43;15.10;;;;;;;;;;4982807;28;20459;-84
2023/12/02 11:06:00;;;;;;;21.70;14.83;;;;;;;;;;4982926;28;20492;-84
2023/12/02 11:08:33;;;;;;;21.23;14.77;;;;;;;;;;4990054;28;20504;-84
2023/12/02 11:11:00;;;;;;;23.93;15.00;;;;;;;;;;4986570;28;20497;-84
2023/12/02 11:13:28;;;;;;;24.20;13.03;;;;;;;;;;4986143;28;20464;-84
2023/12/02 11:16:10;;;;;;;23.00;16.07;;;;;;;;;;4986234;28;20451;-84
2023/12/02 11:18:43;;;;;;;27.73;20.53;;;;;;;;;;4987922;28;20463;-84
2023/12/02 11:21:13;;;;;;;24.20;19.00;;;;;;;;;;4981751;28;20459;-84
2023/12/02 11:23:44;;;;;;;27.43;20.03;;;;;;;;;;4983019;28;20510;-84
2023/12/02 11:26:14;;;;;;;23.50;19.43;;;;;;;;;;4983083;28;20508;-86
2023/12/02 11:28:45;;;;;;;25.73;20.80;;;;;;;;;;4983048;28;20546;-85
2023/12/02 11:31:21;;;;;;;29.13;21.73;;;;;;;;;;4983168;28;20530;-85
2023/12/02 11:33:57;;;;;;;30.37;23.20;;;;;;;;;;4975296;28;20491;-85
2023/12/02 11:36:43;;;;;;;26.13;20.03;;;;;;;;;;4979250;28;20459;-84
2023/12/02 11:39:14;;;;;;;24.70;21.07;;;;;;;;;;4983877;28;20865;-85
2023/12/02 11:41:45;;;;;;;26.37;22.00;;;;;;;;;;4982876;28;21023;-84
2023/12/02 11:44:17;;;;;;;28.00;21.20;;;;;;;;;;4983767;28;20518;-85
2023/12/02 11:46:58;;;;;;;24.30;18.93;;;;;;;;;;4982621;28;20500;-84
2023/12/02 11:49:31;;;;;;;24.83;17.70;;;;;;;;;;4981682;28;20485;-84
2023/12/02 11:52:10;;;;;;;23.87;15.50;;;;;;;;;;4983098;28;20488;-84
2023/12/02 11:54:43;;;;;;;19.00;13.17;;;;;;;;;;4982925;28;20540;-84
2023/12/02 11:57:17;;;;;;;26.17;18.67;;;;;;;;;;4982851;28;20459;-84
2023/12/02 11:59:51;;;;;;;27.30;21.63;;;;;;;;;;4980346;28;20467;-85
2023/12/02 12:02:25;;;;;;;34.90;22.13;;;;;;;;;;4978795;28;20958;-84
2023/12/02 12:05:04;;;;;;;24.83;20.97;;;;;;;;;;4982798;28;20455;-84
2023/12/02 12:07:35;;;;;;;24.40;20.93;;;;;;;;;;4978002;28;20488;-84
2023/12/02 12:10:07;;;;;;;24.10;20.10;;;;;;;;;;4982605;28;20589;-84
2023/12/02 12:12:34;;;;;;;25.40;21.70;;;;;;;;;;4982751;28;20495;-84
2023/12/02 12:15:02;;;;;;;28.20;20.60;;;;;;;;;;4982198;28;20483;-84
2023/12/02 12:17:30;;;;;;;29.07;21.23;;;;;;;;;;4982961;28;20921;-84
2023/12/02 12:19:59;;;;;;;27.40;20.63;;;;;;;;;;4979857;28;20885;-83
2023/12/02 12:22:25;;;;;;;26.80;20.70;;;;;;;;;;4980867;28;20911;-84
2023/12/02 12:24:52;;;;;;;29.53;20.87;;;;;;;;;;4982552;28;20472;-84
2023/12/02 12:27:18;;;;;;;20.77;18.47;;;;;;;;;;4981270;28;20496;-85
2023/12/02 12:29:51;;;;;;;24.93;18.33;;;;;;;;;;4986449;28;20953;-85
2023/12/02 12:32:17;;;;;;;26.80;19.20;;;;;;;;;;4979124;28;20500;-86
2023/12/02 12:34:45;;;;;;;28.00;19.17;;;;;;;;;;4982047;28;20507;-85
2023/12/02 12:37:15;;;;;;;27.87;19.30;;;;;;;;;;4980249;28;20471;-87
2023/12/02 12:39:41;;;;;;;25.53;19.80;;;;;;;;;;4976755;28;20465;-85
2023/12/02 12:42:08;;;;;;;28.40;19.47;;;;;;;;;;4981673;28;20476;-85
2023/12/02 12:44:34;;;;;;;27.77;17.40;;;;;;;;;;4982515;28;20472;-87
2023/12/02 12:47:00;;;;;;;27.63;19.10;;;;;;;;;;4981736;28;20583;-86
2023/12/02 12:49:28;;;;;;;25.13;18.50;;;;;;;;;;4981748;28;20468;-88
2023/12/02 12:52:00;;;;;;;27.30;20.90;;;;;;;;;;4977257;28;20481;-87
2023/12/02 12:54:28;;;;;;;25.40;17.90;;;;;;;;;;4982669;28;20467;-87
2023/12/02 12:56:56;;;;;;;26.83;18.13;;;;;;;;;;4977516;28;20486;-87
2023/12/02 12:59:26;;;;;;;28.43;18.10;;;;;;;;;;4976109;28;20458;-86
2023/12/02 13:01:58;;;;;;;27.47;19.27;;;;;;;;;;4979644;28;20460;-85
2023/12/02 13:04:28;;;;;;;26.37;18.67;;;;;;;;;;4976675;28;20484;-86
2023/12/02 13:07:02;;;;;;;31.27;20.03;;;;;;;;;;4971641;28;20492;-87
2023/12/02 13:09:30;;;;;;;31.20;20.60;;;;;;;;;;4974339;28;20865;-86
2023/12/02 13:12:02;;;;;;;24.83;18.67;;;;;;;;;;4976184;28;20523;-87
2023/12/02 13:14:33;;;;;;;23.87;19.57;;;;;;;;;;4977343;28;20454;-86
2023/12/02 13:17:00;;;;;;;25.97;19.70;;;;;;;;;;4974720;28;20457;-86
2023/12/02 13:19:27;;;;;;;31.73;19.47;;;;;;;;;;4977636;28;20457;-85
2023/12/02 13:21:55;;;;;;;25.60;19.73;;;;;;;;;;4978980;28;20495;-84
2023/12/02 13:24:24;;;;;;;27.53;19.00;;;;;;;;;;4980839;28;20468;-84
2023/12/02 13:26:51;;;;;;;25.13;19.50;;;;;;;;;;4980734;28;20579;-85
2023/12/02 13:29:20;;;;;;;24.97;19.17;;;;;;;;;;4979874;28;20452;-85
2023/12/02 13:31:47;;;;;;;32.87;20.40;;;;;;;;;;4981532;28;20464;-84
2023/12/02 13:34:20;;;;;;;26.03;19.73;;;;;;;;;;4976118;28;20450;-85
2023/12/02 13:36:49;;;;;;;30.83;20.80;;;;;;;;;;4981203;28;20517;-85
2023/12/02 13:39:21;;;;;;;24.93;19.70;;;;;;;;;;4983796;28;20476;-85
2023/12/02 13:41:50;;;;;;;25.47;20.27;;;;;;;;;;4979018;28;20479;-86
2023/12/02 13:44:17;;;;;;;26.27;19.47;;;;;;;;;;4976232;28;20874;-85
2023/12/02 13:46:51;;;;;;;28.43;20.10;;;;;;;;;;4975531;28;20531;-85
2023/12/02 13:49:21;;;;;;;28.80;17.63;;;;;;;;;;4978652;28;20444;-85
2023/12/02 13:51:50;;;;;;;33.50;19.57;;;;;;;;;;4973041;28;20485;-85
2023/12/02 13:54:21;;;;;;;23.80;16.47;;;;;;;;;;4976846;28;20452;-83
2023/12/02 13:56:56;;;;;;;28.97;19.10;;;;;;;;;;4975849;28;20441;-83
2023/12/02 13:59:26;;;;;;;26.13;16.30;;;;;;;;;;4974268;28;20452;-85
2023/12/02 14:01:57;;;;;;;29.13;17.33;;;;;;;;;;4973476;28;20979;-85
2023/12/02 14:04:29;;;;;;;27.90;16.00;;;;;;;;;;4973811;28;20497;-83
2023/12/02 14:07:00;;;;;;;23.60;14.03;;;;;;;;;;4972176;28;20492;-85
2023/12/02 14:09:27;;;;;;;30.07;17.70;;;;;;;;;;4975503;28;20464;-83
2023/12/02 14:12:04;;;;;;;30.83;20.80;;;;;;;;;;4977467;28;20476;-84
2023/12/02 14:14:44;;;;;;;29.50;21.33;;;;;;;;;;4975300;28;20504;-85
2023/12/02 14:17:15;;;;;;;24.50;19.23;;;;;;;;;;4971095;28;20457;-85
2023/12/02 14:20:04;;;;;;;29.40;20.00;;;;;;;;;;4970422;28;20479;-84
2023/12/02 14:22:48;;;;;;;24.40;19.27;;;;;;;;;;4975287;28;21049;-84
2023/12/02 14:25:23;;;;;;;27.47;19.07;;;;;;;;;;4974449;28;20508;-85